Time;durP1;ratioP1;P1;durP2;ratioP2;P2;SDS_P1;SDS_P2;PMS_P1;PMS_P2;Temp;Humidity;BMP_temperature;BMP_pressure;BME280_temperature;BME280_humidity;BME280_pressure;Samples;Min_cycle;Max_cycle;Signal;HPM_P1;HPM_P2
2022/08/29 00:01:10;;;;;;;5.40;4.90;;;;;;;21.42;70.54;100073.69;105765;1274;25242;-76
2022/08/29 00:03:37;;;;;;;5.80;5.20;;;;;;;21.42;70.46;100070.80;106114;1274;24230;-78
2022/08/29 00:06:06;;;;;;;5.20;4.60;;;;;;;21.39;70.51;100064.71;106014;1274;25225;-80
2022/08/29 00:08:33;;;;;;;6.80;5.10;;;;;;;21.45;70.53;100054.86;106266;1274;22547;-78
2022/08/29 00:11:01;;;;;;;5.90;5.40;;;;;;;21.51;70.21;100059.85;106217;1274;24615;-81
2022/08/29 00:13:28;;;;;;;5.60;5.10;;;;;;;21.49;70.09;100061.23;106158;1268;22581;-77
2022/08/29 00:15:55;;;;;;;5.40;4.90;;;;;;;21.46;70.09;100062.13;106505;1268;25240;-79
2022/08/29 00:18:23;;;;;;;5.10;4.60;;;;;;;21.46;70.27;100051.90;106500;1268;23190;-79
2022/08/29 00:20:50;;;;;;;5.70;4.70;;;;;;;21.42;70.22;100048.59;106569;1268;24227;-82
2022/08/29 00:23:17;;;;;;;6.10;5.40;;;;;;;21.44;70.45;100046.88;106499;1268;22522;-83
2022/08/29 00:25:44;;;;;;;6.80;5.20;;;;;;;21.42;70.59;100053.23;106581;1268;24266;-81
2022/08/29 00:28:11;;;;;;;7.70;5.30;;;;;;;21.39;70.78;100057.88;106343;1268;22790;-80
2022/08/29 00:30:39;;;;;;;5.30;4.80;;;;;;;21.44;70.85;100061.58;106449;1269;25380;-78
2022/08/29 00:33:07;;;;;;;5.40;4.90;;;;;;;21.43;70.63;100067.02;106410;1268;24224;-80
2022/08/29 00:35:37;;;;;;;5.20;4.70;;;;;;;21.37;70.89;100062.11;106244;1268;22568;-80
2022/08/29 00:38:07;;;;;;;6.10;5.40;;;;;;;21.40;70.93;100061.44;106579;1268;23925;-78
2022/08/29 00:40:41;;;;;;;5.90;5.40;;;;;;;21.39;71.04;100053.95;106853;1268;26503;-78
2022/08/29 00:43:20;;;;;;;7.20;6.10;;;;;;;21.40;71.32;100053.89;106924;1268;25261;-78
2022/08/29 00:46:15;;;;;;;6.00;5.20;;;;;;;21.40;70.99;100052.66;107595;1268;22544;-76
2022/08/29 00:48:49;;;;;;;5.70;5.20;;;;;;;21.38;71.32;100040.77;107238;1268;24371;-77
2022/08/29 00:51:20;;;;;;;5.80;5.30;;;;;;;21.44;71.04;100041.15;106925;1268;23962;-75
2022/08/29 00:53:53;;;;;;;6.20;5.60;;;;;;;21.47;71.07;100041.48;107479;1268;25244;-77
2022/08/29 00:56:20;;;;;;;6.50;5.80;;;;;;;21.41;71.18;100039.17;107104;1268;22548;-77
2022/08/29 00:58:52;;;;;;;8.20;6.30;;;;;;;21.36;71.35;100043.20;106411;1271;22834;-78
2022/08/29 01:01:21;;;;;;;5.90;5.40;;;;;;;21.32;71.57;100043.06;106520;1268;22544;-80
2022/08/29 01:03:50;;;;;;;6.30;5.50;;;;;;;21.21;71.80;100044.62;106529;1268;22563;-76
2022/08/29 01:06:18;;;;;;;7.00;6.30;;;;;;;21.16;72.00;100044.23;106537;1268;22573;-76
2022/08/29 01:08:46;;;;;;;9.10;6.60;;;;;;;21.12;72.37;100037.80;106550;1268;22509;-77
2022/08/29 01:14:02;;;;;;;8.10;5.90;;;;;;;21.21;72.46;100039.43;106486;1268;24205;-75
2022/08/29 01:16:31;;;;;;;6.30;5.50;;;;;;;21.22;72.35;100039.56;106611;1268;22622;-83
2022/08/29 01:19:09;;;;;;;6.70;5.90;;;;;;;21.21;72.45;100041.73;106579;1271;24282;-75
2022/08/29 01:21:51;;;;;;;6.60;6.00;;;;;;;21.14;72.20;100043.27;108048;1268;22585;-77
2022/08/29 01:24:42;;;;;;;6.60;5.90;;;;;;;21.08;72.65;100050.20;107494;1268;24220;-77
2022/08/29 01:27:11;;;;;;;7.00;6.40;;;;;;;21.08;72.81;100046.47;107123;1271;22544;-75
2022/08/29 01:29:38;;;;;;;6.30;5.70;;;;;;;21.02;72.75;100047.55;108436;1271;22518;-77
2022/08/29 01:32:05;;;;;;;7.20;6.50;;;;;;;21.03;73.23;100047.30;107231;1268;26504;-75
2022/08/29 01:34:32;;;;;;;7.10;6.40;;;;;;;21.07;73.26;100045.46;106625;1271;25570;-84
2022/08/29 01:37:03;;;;;;;7.50;6.80;;;;;;;21.09;73.28;100046.42;106178;1268;22764;-76
2022/08/29 01:39:33;;;;;;;7.80;7.00;;;;;;;21.06;73.49;100049.43;106154;1268;24250;-77
2022/08/29 01:42:06;;;;;;;6.50;5.90;;;;;;;21.09;73.70;100044.05;106353;1268;22458;-76
2022/08/29 01:44:32;;;;;;;7.20;6.30;;;;;;;21.09;73.82;100040.14;106268;1268;22668;-80
2022/08/29 01:47:00;;;;;;;8.00;6.80;;;;;;;21.10;73.81;100044.00;106319;1271;24075;-78
2022/08/29 01:49:31;;;;;;;7.80;7.10;;;;;;;21.08;73.77;100045.02;106137;1271;22714;-77
2022/08/29 01:51:58;;;;;;;7.70;6.70;;;;;;;21.08;73.81;100042.35;106350;1268;24242;-78
2022/08/29 01:54:28;;;;;;;7.70;7.00;;;;;;;21.02;73.93;100039.80;106345;1268;24222;-78
2022/08/29 01:56:55;;;;;;;8.50;6.90;;;;;;;20.98;74.01;100038.79;106454;1268;22551;-79
2022/08/29 01:59:26;;;;;;;7.00;6.30;;;;;;;20.98;74.08;100042.39;106535;1271;25979;-78
2022/08/29 02:02:01;;;;;;;8.60;7.60;;;;;;;20.95;74.23;100045.73;106432;1268;24221;-83
2022/08/29 02:04:28;;;;;;;8.00;7.20;;;;;;;20.89;74.26;100042.14;106235;1270;25524;-78
2022/08/29 02:06:56;;;;;;;10.50;8.30;;;;;;;20.87;74.58;100048.17;106461;1268;25898;-80
2022/08/29 02:09:24;;;;;;;8.70;7.90;;;;;;;20.81;74.82;100052.61;106552;1268;24220;-80
2022/08/29 02:11:53;;;;;;;8.40;7.70;;;;;;;20.76;74.99;100052.54;106498;1268;25358;-82
2022/08/29 02:14:20;;;;;;;8.00;7.30;;;;;;;20.80;75.26;100049.48;106413;1268;25340;-79
2022/08/29 02:16:48;;;;;;;9.20;7.60;;;;;;;20.79;75.43;100049.16;106360;1268;24286;-78
2022/08/29 02:19:16;;;;;;;9.90;8.50;;;;;;;20.75;75.37;100052.79;106441;1268;22541;-78
2022/08/29 02:21:43;;;;;;;9.60;8.70;;;;;;;20.72;75.63;100052.09;106409;1268;22529;-76
2022/08/29 02:24:10;;;;;;;12.50;11.30;;;;;;;20.75;75.85;100059.20;106269;1268;23201;-79
2022/08/29 02:26:54;;;;;;;13.30;12.00;;;;;;;20.75;75.83;100059.23;106315;1271;24675;-77
2022/08/29 02:29:20;;;;;;;15.70;14.20;;;;;;;20.78;75.97;100055.99;106302;1271;22651;-78
2022/08/29 02:31:48;;;;;;;18.40;16.60;;;;;;;20.83;75.77;100058.81;106434;1268;24220;-77
2022/08/29 02:34:16;;;;;;;17.50;15.90;;;;;;;20.75;75.47;100064.58;106444;1268;25238;-78
2022/08/29 02:36:43;;;;;;;17.80;16.10;;;;;;;20.75;75.73;100062.60;106528;1268;25957;-78
2022/08/29 02:39:15;;;;;;;19.00;17.00;;;;;;;20.73;75.89;100068.27;106414;1268;22726;-77
2022/08/29 02:41:42;;;;;;;16.30;14.80;;;;;;;20.72;75.93;100070.66;106496;1268;24067;-79
2022/08/29 02:44:10;;;;;;;16.70;15.20;;;;;;;20.76;75.97;100078.50;106377;1268;25283;-79
2022/08/29 02:46:37;;;;;;;16.30;14.60;;;;;;;20.77;75.94;100079.71;106405;1268;25233;-85
2022/08/29 02:49:05;;;;;;;17.10;15.40;;;;;;;20.82;75.92;100080.88;106407;1268;22541;-78
2022/08/29 02:51:33;;;;;;;17.70;15.80;;;;;;;20.86;76.05;100082.94;105993;1274;24417;-79
2022/08/29 02:54:01;;;;;;;16.50;14.70;;;;;;;20.88;75.77;100084.42;106013;1274;22528;-78
2022/08/29 02:56:29;;;;;;;13.60;12.30;;;;;;;20.77;76.07;100084.01;106035;1274;23957;-78
2022/08/29 02:58:56;;;;;;;15.50;14.10;;;;;;;20.78;76.32;100088.58;105710;1274;22598;-78
2022/08/29 03:01:25;;;;;;;17.00;15.00;;;;;;;20.82;76.31;100089.10;105728;1276;22521;-77
2022/08/29 03:03:52;;;;;;;19.20;17.20;;;;;;;20.80;76.82;100094.01;106026;1274;22940;-75
2022/08/29 03:06:20;;;;;;;18.00;16.00;;;;;;;20.72;76.59;100091.80;105712;1277;22694;-76
2022/08/29 03:08:47;;;;;;;17.90;16.10;;;;;;;20.74;76.81;100090.39;105483;1281;22871;-75
2022/08/29 03:11:16;;;;;;;20.30;18.30;;;;;;;20.78;76.74;100087.48;106066;1274;24116;-74
2022/08/29 03:13:44;;;;;;;22.00;19.70;;;;;;;20.73;76.75;100083.30;105779;1275;23491;-78
2022/08/29 03:16:11;;;;;;;19.80;18.00;;;;;;;20.79;76.95;100085.34;106104;1274;25389;-79
2022/08/29 03:18:38;;;;;;;21.50;19.30;;;;;;;20.86;77.00;100089.21;106049;1274;22539;-78
2022/08/29 03:21:14;;;;;;;19.50;17.60;;;;;;;20.84;76.61;100089.52;105952;1274;22740;-77
2022/08/29 03:23:41;;;;;;;20.70;17.80;;;;;;;20.72;77.02;100092.30;106080;1274;22678;-82
2022/08/29 03:26:08;;;;;;;20.50;18.50;;;;;;;20.67;77.16;100095.27;105912;1274;26615;-78
2022/08/29 03:28:35;;;;;;;19.80;17.80;;;;;;;20.62;77.38;100096.64;106516;1268;22540;-77
2022/08/29 03:31:02;;;;;;;17.80;16.20;;;;;;;20.55;77.52;100096.84;105927;1274;22531;-81
2022/08/29 03:33:29;;;;;;;18.10;16.40;;;;;;;20.58;77.79;100097.22;106055;1274;22527;-78
2022/08/29 03:35:56;;;;;;;18.60;16.70;;;;;;;20.60;77.84;100094.60;106147;1274;25470;-80
2022/08/29 03:38:23;;;;;;;17.90;15.70;;;;;;;20.60;77.75;100101.55;106170;1274;24201;-78
2022/08/29 03:40:50;;;;;;;18.30;16.30;;;;;;;20.64;77.82;100101.17;106151;1274;25365;-84
2022/08/29 03:43:21;;;;;;;17.70;15.90;;;;;;;20.63;77.95;100101.74;105852;1277;26510;-79
2022/08/29 03:45:49;;;;;;;18.50;15.70;;;;;;;20.63;77.89;100103.40;105382;1282;25470;-76
2022/08/29 03:48:15;;;;;;;20.00;16.30;;;;;;;20.60;78.04;100105.50;105486;1281;25689;-77
2022/08/29 03:50:42;;;;;;;14.70;13.40;;;;;;;20.56;78.16;100105.58;105479;1282;22612;-84
2022/08/29 03:53:09;;;;;;;17.30;15.70;;;;;;;20.53;78.62;100112.48;105635;1281;25328;-79
2022/08/29 03:55:37;;;;;;;15.60;13.50;;;;;;;20.55;78.39;100112.56;105199;1286;25536;-78
2022/08/29 03:58:04;;;;;;;13.90;12.70;;;;;;;20.56;78.64;100112.91;104766;1291;25630;-79
2022/08/29 04:00:31;;;;;;;12.40;11.30;;;;;;;20.57;78.58;100114.61;104707;1295;22588;-80
2022/08/29 04:02:58;;;;;;;11.90;10.90;;;;;;;20.59;78.54;100113.97;105013;1297;24346;-80
2022/08/29 04:05:25;;;;;;;12.70;11.60;;;;;;;20.66;78.66;100120.40;104086;1297;22861;-82
2022/08/29 04:07:55;;;;;;;13.20;11.70;;;;;;;20.68;78.33;100122.58;104799;1297;22595;-77
2022/08/29 04:10:29;;;;;;;12.50;11.20;;;;;;;20.73;78.28;100121.08;104753;1286;22486;-77
2022/08/29 04:12:57;;;;;;;12.90;10.80;;;;;;;20.76;78.02;100125.22;105256;1285;22485;-77
2022/08/29 04:15:27;;;;;;;12.20;10.70;;;;;;;20.73;77.54;100124.80;105552;1277;22528;-78
2022/08/29 04:17:57;;;;;;;13.40;12.00;;;;;;;20.67;77.73;100125.50;106265;1269;25244;-77
2022/08/29 04:20:27;;;;;;;12.20;10.60;;;;;;;20.63;77.63;100132.20;106226;1274;22538;-80
2022/08/29 04:22:55;;;;;;;11.20;10.00;;;;;;;20.54;77.68;100135.33;106754;1274;25362;-84
2022/08/29 04:25:25;;;;;;;11.20;10.10;;;;;;;20.53;78.13;100137.20;106398;1277;22537;-82
2022/08/29 04:27:53;;;;;;;11.50;10.40;;;;;;;20.56;78.19;100135.43;107390;1274;22700;-82
2022/08/29 04:30:24;;;;;;;12.70;11.40;;;;;;;20.57;78.00;100135.21;108551;1274;23822;-82
2022/08/29 04:32:51;;;;;;;13.70;11.70;;;;;;;20.56;77.98;100143.46;109237;1274;22572;-83
2022/08/29 04:35:19;;;;;;;12.80;11.60;;;;;;;20.57;78.07;100143.44;109245;1274;22608;-82
2022/08/29 04:37:45;;;;;;;11.50;10.40;;;;;;;20.62;78.47;100140.48;109535;1268;22554;-84
2022/08/29 04:40:16;;;;;;;12.90;11.60;;;;;;;20.66;78.52;100142.73;109553;1271;22564;-81
2022/08/29 04:42:48;;;;;;;12.30;11.10;;;;;;;20.58;78.26;100147.65;108649;1268;23739;-75
2022/08/29 04:45:18;;;;;;;12.90;11.60;;;;;;;20.52;78.43;100146.36;106776;1268;25199;-77
2022/08/29 04:47:45;;;;;;;11.90;10.80;;;;;;;20.54;78.80;100146.30;107601;1268;25226;-77
2022/08/29 04:50:17;;;;;;;11.50;10.40;;;;;;;20.60;78.79;100143.80;108027;1268;25515;-77
2022/08/29 04:52:44;;;;;;;9.50;8.60;;;;;;;20.63;78.49;100146.52;106748;1268;25315;-77
2022/08/29 04:55:11;;;;;;;10.30;9.30;;;;;;;20.56;78.40;100149.91;106462;1271;22525;-79
2022/08/29 04:57:40;;;;;;;9.30;8.30;;;;;;;20.53;78.44;100148.06;106261;1273;22539;-77
2022/08/29 05:00:12;;;;;;;11.20;7.70;;;;;;;20.47;78.63;100151.26;106400;1268;24271;-78
2022/08/29 05:02:41;;;;;;;10.30;7.10;;;;;;;20.38;78.70;100154.98;105924;1274;22534;-77
2022/08/29 05:05:10;;;;;;;10.40;7.90;;;;;;;20.32;78.83;100153.70;106154;1274;24231;-76
2022/08/29 05:07:37;;;;;;;10.80;7.20;;;;;;;20.29;78.89;100158.52;105989;1274;22761;-77
2022/08/29 05:10:09;;;;;;;13.70;7.00;;;;;;;20.24;78.78;100161.30;105998;1274;27109;-77
2022/08/29 05:12:38;;;;;;;6.80;5.80;;;;;;;20.21;78.93;100165.17;105524;1280;25308;-77
2022/08/29 05:15:06;;;;;;;6.20;4.10;;;;;;;20.16;78.74;100165.80;105743;1280;22534;-78
2022/08/29 05:17:33;;;;;;;7.80;3.90;;;;;;;20.12;78.89;100172.06;105642;1279;25391;-79
2022/08/29 05:20:01;;;;;;;5.90;3.90;;;;;;;20.10;79.03;100172.02;106032;1279;22540;-82
2022/08/29 05:22:28;;;;;;;15.50;3.60;;;;;;;20.10;79.06;100172.91;106165;1274;24492;-77
2022/08/29 05:24:55;;;;;;;5.70;4.00;;;;;;;20.06;78.76;100173.10;105906;1274;22553;-81
2022/08/29 05:27:23;;;;;;;4.80;3.50;;;;;;;20.03;78.73;100171.46;106052;1274;22764;-81
2022/08/29 05:29:51;;;;;;;4.40;2.80;;;;;;;20.02;78.68;100170.08;105871;1274;22763;-82
2022/08/29 05:32:20;;;;;;;8.80;3.10;;;;;;;19.98;78.68;100173.16;106386;1271;25355;-77
2022/08/29 05:34:48;;;;;;;6.10;3.10;;;;;;;19.96;78.70;100173.03;106429;1268;22564;-78
2022/08/29 05:37:18;;;;;;;15.00;4.30;;;;;;;19.92;78.86;100175.80;106300;1271;25247;-79
2022/08/29 05:39:46;;;;;;;7.40;3.60;;;;;;;19.90;78.83;100178.20;106475;1268;24232;-79
2022/08/29 05:42:15;;;;;;;7.60;3.30;;;;;;;19.89;78.85;100182.38;106589;1268;22553;-78
2022/08/29 05:44:43;;;;;;;7.70;3.00;;;;;;;19.84;78.74;100185.12;106331;1274;22531;-82
2022/08/29 05:47:13;;;;;;;6.70;3.10;;;;;;;19.80;78.65;100183.88;106465;1268;22579;-83
2022/08/29 05:49:42;;;;;;;3.20;3.00;;;;;;;19.80;78.75;100185.13;106296;1271;25239;-82
2022/08/29 05:52:11;;;;;;;4.10;3.20;;;;;;;19.79;78.76;100187.86;106527;1268;22681;-87
2022/08/29 05:54:40;;;;;;;5.80;3.20;;;;;;;19.79;78.77;100190.35;106418;1268;22528;-87
2022/08/29 05:57:10;;;;;;;6.80;3.20;;;;;;;19.77;78.68;100194.06;106476;1268;22555;-86
2022/08/29 05:59:43;;;;;;;3.90;3.00;;;;;;;19.75;78.88;100194.13;105950;1277;22551;-86
2022/08/29 06:02:11;;;;;;;5.50;3.40;;;;;;;19.81;78.97;100193.83;105842;1277;22651;-86
2022/08/29 06:04:39;;;;;;;5.90;3.50;;;;;;;19.87;78.52;100196.77;105926;1277;22563;-85
2022/08/29 06:07:07;;;;;;;6.70;3.50;;;;;;;19.85;78.57;100194.36;105995;1277;22873;-85
2022/08/29 06:09:36;;;;;;;7.30;3.90;;;;;;;19.89;78.55;100199.34;105997;1277;25317;-86
2022/08/29 06:12:04;;;;;;;6.90;3.60;;;;;;;19.89;78.55;100199.51;106114;1276;22764;-85
2022/08/29 06:14:32;;;;;;;10.30;3.60;;;;;;;19.84;78.92;100207.09;105876;1277;25243;-86
2022/08/29 06:16:59;;;;;;;8.40;4.00;;;;;;;19.79;78.88;100207.13;106039;1276;23311;-85
2022/08/29 06:19:30;;;;;;;7.80;3.80;;;;;;;19.78;78.98;100206.33;106432;1271;22471;-84
2022/08/29 06:21:56;;;;;;;5.30;4.00;;;;;;;19.78;79.19;100208.98;106465;1268;22864;-85
2022/08/29 06:24:23;;;;;;;7.00;3.80;;;;;;;19.79;79.38;100208.77;106457;1269;22611;-83
2022/08/29 06:26:50;;;;;;;11.00;4.50;;;;;;;19.76;79.50;100209.59;106566;1271;25251;-84
2022/08/29 06:29:17;;;;;;;9.70;4.90;;;;;;;19.76;79.59;100211.42;106656;1268;22738;-85
2022/08/29 06:31:44;;;;;;;4.80;4.40;;;;;;;19.74;79.77;100213.68;106569;1271;23172;-85
2022/08/29 06:34:11;;;;;;;4.70;4.20;;;;;;;19.78;79.82;100219.20;106545;1268;22685;-86
2022/08/29 06:36:38;;;;;;;5.10;4.00;;;;;;;19.76;79.80;100220.33;106467;1268;22548;-87
2022/08/29 06:39:08;;;;;;;4.30;3.90;;;;;;;19.75;79.88;100223.77;106413;1271;22642;-85
2022/08/29 06:41:37;;;;;;;4.20;3.60;;;;;;;19.71;80.28;100225.42;106649;1268;22525;-86
2022/08/29 06:44:07;;;;;;;4.40;4.10;;;;;;;19.61;80.80;100225.02;106979;1268;24283;-86
2022/08/29 06:46:41;;;;;;;5.70;4.60;;;;;;;19.68;80.87;100233.60;106694;1268;22531;-83
2022/08/29 06:49:13;;;;;;;5.90;4.50;;;;;;;19.80;80.82;100235.86;106647;1271;22645;-84
2022/08/29 06:51:45;;;;;;;5.00;4.50;;;;;;;19.88;80.55;100240.48;106628;1268;24229;-85
2022/08/29 06:54:12;;;;;;;5.60;4.90;;;;;;;19.95;80.08;100246.40;106795;1271;25451;-85
2022/08/29 06:56:39;;;;;;;5.10;4.50;;;;;;;19.90;79.88;100246.48;107037;1269;25239;-83
2022/08/29 06:59:10;;;;;;;5.50;5.00;;;;;;;19.92;80.01;100251.52;107169;1268;25235;-85
2022/08/29 07:01:39;;;;;;;7.10;5.70;;;;;;;19.94;79.83;100251.79;106885;1268;22534;-83
2022/08/29 07:04:08;;;;;;;5.80;5.30;;;;;;;19.94;80.00;100256.63;107018;1268;25213;-86
2022/08/29 07:06:42;;;;;;;6.00;5.20;;;;;;;19.93;80.06;100258.99;107014;1271;24492;-86
2022/08/29 07:09:10;;;;;;;5.20;4.70;;;;;;;19.88;79.78;100266.23;107008;1269;24915;-86
2022/08/29 07:11:38;;;;;;;5.70;5.10;;;;;;;19.79;79.92;100264.31;106606;1274;22577;-85
2022/08/29 07:14:08;;;;;;;9.00;5.70;;;;;;;19.75;80.21;100269.15;107063;1268;25435;-84
2022/08/29 07:16:35;;;;;;;8.00;6.20;;;;;;;19.77;80.38;100267.61;106785;1271;22557;-87
2022/08/29 07:19:05;;;;;;;7.80;6.60;;;;;;;19.78;80.44;100266.85;106873;1268;22524;-86
2022/08/29 07:21:32;;;;;;;10.00;7.00;;;;;;;19.79;80.36;100267.19;106740;1271;22518;-84
2022/08/29 07:23:59;;;;;;;12.90;6.40;;;;;;;19.77;80.42;100270.47;106596;1271;22476;-86
2022/08/29 07:26:34;;;;;;;12.10;8.20;;;;;;;19.78;80.28;100276.87;106450;1271;24244;-85
2022/08/29 07:29:06;;;;;;;17.70;8.00;;;;;;;19.77;80.36;100275.46;106476;1269;25244;-86
2022/08/29 07:31:33;;;;;;;13.80;7.40;;;;;;;19.79;80.29;100275.39;106544;1268;24873;-86
2022/08/29 07:34:00;;;;;;;9.70;6.90;;;;;;;19.84;80.18;100283.20;106435;1271;24089;-87
2022/08/29 07:36:31;;;;;;;9.00;7.00;;;;;;;19.91;79.84;100285.35;106656;1268;24217;-85
2022/08/29 07:39:02;;;;;;;8.50;6.70;;;;;;;19.96;79.39;100288.86;107878;1268;22639;-83
2022/08/29 07:41:29;;;;;;;8.60;6.50;;;;;;;19.91;79.28;100292.34;108402;1268;23178;-85
2022/08/29 07:43:56;;;;;;;7.50;6.70;;;;;;;19.89;79.42;100289.92;108505;1268;22467;-85
2022/08/29 07:46:25;;;;;;;8.80;6.10;;;;;;;19.94;79.37;100293.24;109512;1268;24137;-85
2022/08/29 07:48:53;;;;;;;6.90;6.20;;;;;;;19.98;79.25;100297.35;109534;1268;22736;-88
2022/08/29 07:51:22;;;;;;;10.30;7.80;;;;;;;19.95;78.75;100300.73;108652;1268;22604;-85
2022/08/29 07:53:50;;;;;;;7.70;6.40;;;;;;;19.92;78.64;100305.87;106559;1271;25247;-84
2022/08/29 07:56:23;;;;;;;7.90;6.10;;;;;;;19.97;78.39;100304.52;106293;1271;22694;-87
2022/08/29 07:58:52;;;;;;;7.00;5.30;;;;;;;20.04;78.02;100305.11;106418;1268;24215;-92
2022/08/29 08:01:20;;;;;;;6.50;5.70;;;;;;;20.13;77.51;100302.16;106365;1271;22867;-84
2022/08/29 08:03:49;;;;;;;9.20;5.10;;;;;;;20.17;77.04;100302.14;106290;1271;25464;-85
2022/08/29 08:06:18;;;;;;;6.90;5.90;;;;;;;20.23;76.72;100303.80;106556;1268;25297;-84
2022/08/29 08:08:46;;;;;;;8.10;4.90;;;;;;;20.33;76.39;100306.70;106486;1271;22639;-84
2022/08/29 08:11:14;;;;;;;9.00;6.00;;;;;;;20.46;75.32;100309.27;106641;1272;22544;-80
2022/08/29 08:13:41;;;;;;;9.10;6.00;;;;;;;20.50;74.91;100312.13;106661;1271;25360;-91
2022/08/29 08:16:12;;;;;;;6.80;5.50;;;;;;;20.48;74.28;100311.83;106670;1268;25328;-81
2022/08/29 08:18:42;;;;;;;6.80;4.90;;;;;;;20.45;74.14;100316.11;106355;1271;25410;-79
2022/08/29 08:21:10;;;;;;;9.50;4.90;;;;;;;20.40;74.18;100312.63;106411;1269;23543;-81
2022/08/29 08:23:38;;;;;;;7.00;4.60;;;;;;;20.43;73.91;100322.65;106222;1268;24309;-81
2022/08/29 08:26:07;;;;;;;8.60;5.30;;;;;;;20.39;73.42;100323.92;106257;1271;25353;-81
2022/08/29 08:28:34;;;;;;;5.80;5.00;;;;;;;20.34;73.38;100327.57;106319;1271;22576;-81
2022/08/29 08:31:04;;;;;;;6.00;5.10;;;;;;;20.28;73.33;100330.38;106663;1272;23962;-79
2022/08/29 08:33:37;;;;;;;7.50;5.20;;;;;;;20.25;73.51;100336.43;106724;1271;22770;-88
2022/08/29 08:36:16;;;;;;;7.90;4.60;;;;;;;20.25;73.62;100336.09;109300;1268;22616;-92
2022/08/29 08:38:44;;;;;;;6.10;5.00;;;;;;;20.26;73.55;100344.06;109878;1270;22663;-90
2022/08/29 08:41:24;;;;;;;7.70;5.20;;;;;;;20.20;73.46;100345.27;109540;1268;22550;-86
2022/08/29 08:44:05;;;;;;;8.30;4.90;;;;;;;20.17;73.08;100343.63;109599;1268;22718;-91
2022/08/29 08:46:46;;;;;;;6.40;5.00;;;;;;;20.14;73.05;100342.70;109913;1268;22538;-89
2022/08/29 08:49:30;;;;;;;7.40;5.10;;;;;;;20.22;73.17;100340.15;109835;1268;22538;-85
2022/08/29 08:52:02;;;;;;;9.20;5.30;;;;;;;20.35;73.07;100344.35;109895;1268;22432;-90
2022/08/29 08:54:40;;;;;;;11.00;5.40;;;;;;;20.39;72.81;100347.73;109842;1268;22548;-91
2022/08/29 08:57:10;;;;;;;6.00;4.50;;;;;;;20.34;72.39;100344.38;109778;1271;22567;-90
2022/08/29 08:59:42;;;;;;;8.90;4.50;;;;;;;20.32;72.68;100345.41;109482;1276;22826;-90
2022/08/29 09:02:59;;;;;;;8.70;4.70;;;;;;;20.38;72.84;100347.77;109581;1277;22692;-91
2022/08/29 09:06:07;;;;;;;9.60;4.60;;;;;;;20.47;71.98;100349.60;109534;1277;22731;-88
2022/08/29 09:09:01;;;;;;;7.60;5.50;;;;;;;20.54;71.80;100352.15;109529;1274;22569;-92
2022/08/29 09:11:44;;;;;;;5.30;4.70;;;;;;;20.71;70.81;100352.71;107955;1280;22802;-91
2022/08/29 09:14:36;;;;;;;8.60;5.00;;;;;;;20.71;70.07;100355.05;105155;1281;2109486;-84
2022/08/29 09:17:14;;;;;;;6.40;4.80;;;;;;;20.82;69.97;100361.42;106698;1277;24218;-92
2022/08/29 09:19:43;;;;;;;6.40;4.40;;;;;;;20.95;68.84;100357.21;107069;1275;22536;-92
2022/08/29 09:22:19;;;;;;;6.50;4.70;;;;;;;21.06;68.42;100359.87;107770;1275;25315;-93
2022/08/29 09:24:52;;;;;;;6.10;4.70;;;;;;;21.10;67.92;100358.92;107806;1274;24281;-92
2022/08/29 09:27:23;;;;;;;7.50;5.00;;;;;;;21.16;67.93;100358.23;108024;1274;22579;-92
2022/08/29 09:30:10;;;;;;;6.20;4.50;;;;;;;21.37;67.75;100362.33;107581;1268;22467;-91
2022/08/29 09:33:11;;;;;;;10.70;5.30;;;;;;;21.68;67.26;100357.04;108115;1268;24402;-92
2022/08/29 09:35:47;;;;;;;5.30;4.60;;;;;;;21.76;66.01;100356.38;107482;1270;25367;-92
2022/08/29 09:38:17;;;;;;;6.90;5.00;;;;;;;21.75;65.70;100349.98;107905;1274;23083;-85
2022/08/29 09:40:44;;;;;;;6.20;4.40;;;;;;;21.83;65.87;100353.38;108905;1268;22519;-91
2022/08/29 09:43:37;;;;;;;5.60;4.40;;;;;;;21.90;65.37;100352.42;108914;1268;22566;-89
2022/08/29 09:46:10;;;;;;;5.70;4.50;;;;;;;22.05;64.20;100351.06;108861;1271;22522;-90
2022/08/29 09:48:52;;;;;;;6.00;4.70;;;;;;;22.08;63.63;100351.23;108859;1268;22479;-91
2022/08/29 09:51:24;;;;;;;7.50;5.50;;;;;;;22.01;63.27;100353.27;108310;1268;22532;-92
2022/08/29 09:53:53;;;;;;;5.20;4.70;;;;;;;21.95;62.98;100354.09;108541;1271;22580;-90
2022/08/29 09:56:25;;;;;;;8.80;5.00;;;;;;;21.91;63.01;100358.11;108092;1268;24230;-90
2022/08/29 09:59:03;;;;;;;5.50;4.50;;;;;;;21.83;62.81;100361.77;108311;1271;22564;-92
2022/08/29 10:01:32;;;;;;;7.10;5.30;;;;;;;21.76;63.09;100363.21;108790;1268;22666;-90
2022/08/29 10:04:07;;;;;;;6.70;4.70;;;;;;;21.69;63.09;100360.06;109003;1268;22732;-91
2022/08/29 10:06:39;;;;;;;5.20;4.30;;;;;;;21.78;62.53;100361.71;109154;1268;22587;-91
2022/08/29 10:09:29;;;;;;;4.70;4.30;;;;;;;22.06;62.17;100357.05;109705;1268;22705;-91
2022/08/29 10:12:02;;;;;;;6.30;4.30;;;;;;;22.34;61.23;100354.94;108573;1277;22836;-92
2022/08/29 10:14:37;;;;;;;4.80;4.40;;;;;;;22.55;60.17;100350.09;107555;1274;22558;-90
2022/08/29 10:20:34;;;;;;;6.00;4.10;;;;;;;22.84;58.48;100357.36;106670;1280;24087;-90
2022/08/29 10:23:19;;;;;;;3.80;3.40;;;;;;;22.88;57.93;100359.45;106891;1280;25289;-91
2022/08/29 10:25:47;;;;;;;8.50;3.60;;;;;;;23.08;57.31;100356.59;106418;1281;22487;-93
2022/08/29 10:28:16;;;;;;;6.90;4.30;;;;;;;23.00;56.45;100352.27;106120;1284;25239;-91
2022/08/29 10:31:07;;;;;;;5.10;3.30;;;;;;;23.03;56.85;100364.13;106525;1275;22795;-90
2022/08/29 10:34:15;;;;;;;6.60;2.80;;;;;;;23.19;56.00;100357.17;106921;1274;25246;-91
2022/08/29 10:36:49;;;;;;;9.40;3.20;;;;;;;23.40;55.91;100356.25;105549;1284;25384;-86
2022/08/29 10:39:34;;;;;;;18.50;3.00;;;;;;;23.45;55.94;100356.86;105932;1277;23120;-84
2022/08/29 10:42:14;;;;;;;6.00;2.70;;;;;;;23.43;54.52;100362.17;106112;1278;25254;-84
2022/08/29 10:44:53;;;;;;;6.10;3.10;;;;;;;23.25;53.88;100358.61;106195;1277;24224;-85
2022/08/29 10:47:49;;;;;;;6.80;2.80;;;;;;;23.20;53.74;100360.73;106595;1277;22478;-85
2022/08/29 10:50:34;;;;;;;4.10;2.70;;;;;;;23.20;53.76;100362.85;107737;1277;22878;-85
2022/08/29 10:53:26;;;;;;;2.70;2.30;;;;;;;23.23;53.49;100365.56;107870;1276;22582;-84
2022/08/29 10:55:58;;;;;;;4.20;2.80;;;;;;;23.39;53.63;100363.86;108610;1277;22635;-84
2022/08/29 10:58:49;;;;;;;3.40;2.60;;;;;;;23.53;52.25;100364.98;108723;1275;22583;-85
2022/08/29 11:01:29;;;;;;;3.80;2.30;;;;;;;23.66;52.19;100360.91;108009;1277;22532;-85
2022/08/29 11:04:18;;;;;;;5.00;2.40;;;;;;;23.84;51.60;100358.88;106988;1278;22715;-83
2022/08/29 11:06:56;;;;;;;3.90;2.40;;;;;;;23.95;51.32;100363.92;106435;1277;22544;-84
2022/08/29 11:09:36;;;;;;;4.90;2.30;;;;;;;23.95;50.97;100362.46;106322;1278;23071;-84
2022/08/29 11:12:43;;;;;;;4.60;2.30;;;;;;;24.16;49.90;100363.11;105771;1277;22746;-84
2022/08/29 11:15:32;;;;;;;4.40;2.10;;;;;;;23.81;50.35;100371.30;106668;1268;22521;-82
2022/08/29 11:18:23;;;;;;;3.50;2.40;;;;;;;23.46;51.16;100367.77;106925;1268;25103;-81
2022/08/29 11:20:56;;;;;;;4.90;3.40;;;;;;;23.42;50.45;100368.54;107081;1268;24213;-80
2022/08/29 11:23:38;;;;;;;2.90;2.40;;;;;;;23.66;50.76;100366.17;107066;1271;22559;-82
2022/08/29 11:26:27;;;;;;;4.50;2.20;;;;;;;23.88;49.86;100363.27;106984;1268;25524;-82
2022/08/29 11:29:09;;;;;;;3.30;2.50;;;;;;;24.00;49.36;100353.47;106617;1271;23966;-85
2022/08/29 11:31:55;;;;;;;3.50;2.20;;;;;;;24.15;49.22;100363.68;106795;1268;22525;-81
2022/08/29 11:34:27;;;;;;;6.90;2.40;;;;;;;24.17;49.13;100357.24;107045;1268;22710;-84
2022/08/29 11:37:20;;;;;;;5.40;2.30;;;;;;;24.44;48.31;100356.70;107204;1271;22550;-80
2022/08/29 11:40:16;;;;;;;4.50;2.50;;;;;;;24.48;47.61;100366.52;107208;1268;24835;-82
2022/08/29 11:42:45;;;;;;;;;;;;;;;24.48;48.01;100366.39;107098;1268;23062;-82